Time;durP1;ratioP1;P1;durP2;ratioP2;P2;SDS_P1;SDS_P2;PMS_P1;PMS_P2;Temp;Humidity;BMP_temperature;BMP_pressure;BME280_temperature;BME280_humidity;BME280_pressure;Samples;Min_cycle;Max_cycle;Signal;HPM_P1;HPM_P2
2023/11/24 00:00:40;;;;;;;11.30;8.13;;;;;;;8.53;69.58;93549.28;4940140;28;20016;-79
2023/11/24 00:03:06;;;;;;;12.98;8.23;;;;;;;8.54;69.42;93546.34;4930095;28;20101;-79
2023/11/24 00:05:31;;;;;;;11.82;9.75;;;;;;;8.64;69.11;93539.19;4926756;28;20535;-78
2023/11/24 00:07:57;;;;;;;11.52;8.43;;;;;;;8.73;69.25;93530.19;4928102;28;20388;-75
2023/11/24 00:10:23;;;;;;;12.50;8.43;;;;;;;8.87;68.34;93524.75;4925442;28;20042;-77
2023/11/24 00:12:49;;;;;;;13.00;8.43;;;;;;;8.85;68.34;93529.59;4922759;28;20127;-79
2023/11/24 00:15:14;;;;;;;13.75;8.35;;;;;;;8.63;68.68;93497.84;4928312;28;20039;-78
2023/11/24 00:17:39;;;;;;;10.75;7.63;;;;;;;8.71;68.83;93489.13;4924972;28;20376;-78
2023/11/24 00:20:10;;;;;;;12.82;8.57;;;;;;;8.77;68.67;93511.78;4928359;28;20422;-77
2023/11/24 00:22:35;;;;;;;12.82;8.95;;;;;;;8.85;68.19;93500.44;4928085;28;20042;-78
2023/11/24 00:25:00;;;;;;;12.98;8.25;;;;;;;8.75;68.47;93468.91;4924149;28;20024;-77
2023/11/24 00:27:26;;;;;;;12.50;9.07;;;;;;;8.87;68.00;93488.41;4931244;28;20039;-77
2023/11/24 00:29:51;;;;;;;11.00;7.65;;;;;;;8.83;68.26;93486.69;4923468;28;20807;-77
2023/11/24 00:32:19;;;;;;;12.38;8.57;;;;;;;8.71;68.37;93489.91;4930080;28;20046;-77
2023/11/24 00:34:44;;;;;;;12.35;8.48;;;;;;;8.53;69.10;93472.41;4929574;28;20039;-78
2023/11/24 00:37:10;;;;;;;13.90;9.30;;;;;;;8.68;68.26;93466.69;4929144;28;20257;-78
2023/11/24 00:39:36;;;;;;;14.18;9.80;;;;;;;8.74;67.88;93462.03;4930915;28;20045;-79
2023/11/24 00:42:02;;;;;;;16.25;9.13;;;;;;;8.74;67.78;93456.72;4927046;28;20063;-78
2023/11/24 00:44:28;;;;;;;14.50;8.73;;;;;;;8.59;68.11;93444.69;4932603;28;20042;-77
2023/11/24 00:46:54;;;;;;;13.20;8.68;;;;;;;8.63;68.41;93466.06;4930386;28;20031;-77
2023/11/24 00:49:20;;;;;;;18.30;10.50;;;;;;;8.43;69.22;93457.59;4929916;28;20558;-77
2023/11/24 00:51:46;;;;;;;14.63;10.57;;;;;;;8.47;68.81;93447.91;4929355;28;20031;-76
2023/11/24 00:54:11;;;;;;;15.00;10.20;;;;;;;8.72;68.42;93464.97;4930744;28;20031;-78
2023/11/24 00:56:37;;;;;;;16.05;11.18;;;;;;;8.74;68.10;93456.72;4931534;28;20035;-77
2023/11/24 00:59:02;;;;;;;15.77;10.48;;;;;;;8.50;67.88;93425.34;4932084;28;20126;-77
2023/11/24 01:01:28;;;;;;;13.77;9.90;;;;;;;8.70;68.54;93451.25;4932070;28;20475;-76
2023/11/24 01:03:53;;;;;;;20.63;11.23;;;;;;;8.65;68.06;93424.13;4934003;28;20099;-78
2023/11/24 01:06:19;;;;;;;15.23;9.50;;;;;;;8.80;68.14;93439.59;4933149;28;20057;-76
2023/11/24 01:08:44;;;;;;;16.10;9.68;;;;;;;8.70;68.38;93429.28;4948241;28;20039;-76
2023/11/24 01:11:10;;;;;;;14.35;9.02;;;;;;;8.62;68.41;93406.16;4933567;28;20035;-76
2023/11/24 01:13:38;;;;;;;11.90;8.15;;;;;;;8.72;67.73;93398.69;4932896;28;20035;-76
2023/11/24 01:16:04;;;;;;;12.68;9.20;;;;;;;8.62;68.23;93395.56;4930568;28;20055;-77
2023/11/24 01:18:30;;;;;;;14.98;9.93;;;;;;;8.67;68.15;93403.38;4947278;28;20480;-78
2023/11/24 01:20:56;;;;;;;13.52;9.27;;;;;;;8.80;68.07;93399.81;4931771;28;20580;-77
2023/11/24 01:23:22;;;;;;;13.70;9.07;;;;;;;8.70;68.67;93397.47;4934761;28;20066;-78
2023/11/24 01:25:47;;;;;;;14.18;9.55;;;;;;;8.38;69.14;93378.22;4931389;28;20281;-78
2023/11/24 01:28:13;;;;;;;12.10;8.95;;;;;;;8.43;69.49;93372.00;4934272;28;20495;-78
2023/11/24 01:30:39;;;;;;;14.77;8.77;;;;;;;8.39;69.16;93360.47;4928068;28;20051;-77
2023/11/24 01:33:05;;;;;;;16.42;8.90;;;;;;;8.55;69.17;93375.63;4936888;28;20098;-78
2023/11/24 01:35:31;;;;;;;13.43;8.57;;;;;;;8.71;68.44;93369.84;4932322;28;20125;-76
2023/11/24 01:37:59;;;;;;;16.23;8.85;;;;;;;8.69;68.21;93359.56;4945592;28;20039;-78
2023/11/24 01:40:25;;;;;;;13.10;9.18;;;;;;;8.53;68.55;93356.59;4934243;28;20032;-78
2023/11/24 01:42:50;;;;;;;15.13;9.40;;;;;;;8.52;68.66;93348.94;4929367;28;20043;-78
2023/11/24 01:45:16;;;;;;;19.35;11.57;;;;;;;8.51;68.92;93353.44;4933910;28;20071;-78
2023/11/24 01:47:41;;;;;;;22.55;12.77;;;;;;;8.63;68.39;93354.72;4934235;28;20040;-77
2023/11/24 01:50:08;;;;;;;21.63;13.25;;;;;;;8.25;69.93;93341.28;4932610;28;20035;-78
2023/11/24 01:52:35;;;;;;;19.42;12.30;;;;;;;8.54;68.64;93347.56;4937104;28;20042;-78
2023/11/24 01:55:04;;;;;;;17.55;10.80;;;;;;;8.50;68.68;93329.94;4938419;28;20487;-78
2023/11/24 01:57:31;;;;;;;20.50;12.35;;;;;;;8.50;68.68;93317.47;4934723;28;20434;-78
2023/11/24 01:59:58;;;;;;;15.70;11.73;;;;;;;8.51;68.30;93318.25;4931900;28;20491;-78
2023/11/24 02:02:24;;;;;;;18.38;12.73;;;;;;;8.42;69.48;93323.50;4933358;28;20113;-77
2023/11/24 02:04:50;;;;;;;14.52;11.40;;;;;;;8.50;69.15;93317.47;4932945;28;20451;-78
2023/11/24 02:07:17;;;;;;;20.27;12.50;;;;;;;8.59;68.95;93318.25;4933653;28;20035;-79
2023/11/24 02:09:42;;;;;;;19.80;12.18;;;;;;;8.46;69.13;93291.91;4932583;28;20031;-77
2023/11/24 02:12:08;;;;;;;21.58;12.48;;;;;;;8.49;69.28;93312.47;4933037;28;20032;-77
2023/11/24 02:14:33;;;;;;;20.80;14.38;;;;;;;8.18;70.04;93309.94;4932891;28;20039;-77
2023/11/24 02:16:59;;;;;;;21.27;14.65;;;;;;;8.45;69.38;93317.63;4932265;28;20066;-76
2023/11/24 02:19:28;;;;;;;24.33;15.32;;;;;;;8.55;69.19;93309.34;4931418;28;20023;-78
2023/11/24 02:21:53;;;;;;;23.75;14.40;;;;;;;8.29;70.04;93297.97;4934218;28;20115;-77
2023/11/24 02:24:19;;;;;;;18.63;12.80;;;;;;;8.32;69.30;93276.13;4947353;28;20035;-78
2023/11/24 02:26:45;;;;;;;17.90;11.32;;;;;;;8.55;68.68;93285.50;4932376;28;20039;-78
2023/11/24 02:29:10;;;;;;;16.02;11.73;;;;;;;8.21;69.62;93259.00;4924513;28;20039;-77
2023/11/24 02:31:36;;;;;;;15.65;10.35;;;;;;;8.32;69.04;93257.59;4933883;28;20515;-77
2023/11/24 02:34:02;;;;;;;14.80;9.95;;;;;;;8.40;69.13;93267.41;4930117;28;20027;-78
2023/11/24 02:36:30;;;;;;;14.48;10.13;;;;;;;8.40;68.76;93250.75;4928505;28;20641;-77
2023/11/24 02:38:56;;;;;;;14.40;8.80;;;;;;;8.41;68.44;93257.59;4930520;28;20518;-78
2023/11/24 02:41:22;;;;;;;19.85;11.88;;;;;;;8.39;68.57;93252.59;4932872;28;20047;-78
2023/11/24 02:43:48;;;;;;;16.45;9.68;;;;;;;8.40;68.77;93256.03;4930437;28;20040;-78
2023/11/24 02:46:14;;;;;;;17.95;11.32;;;;;;;8.24;69.11;93242.47;4928861;28;20561;-78
2023/11/24 02:48:43;;;;;;;15.32;10.50;;;;;;;8.16;69.13;93230.03;4932105;28;20559;-78
2023/11/24 02:51:10;;;;;;;18.55;10.32;;;;;;;7.96;70.45;93233.28;4932301;28;20041;-77
2023/11/24 02:53:39;;;;;;;22.70;11.23;;;;;;;8.03;70.03;93225.63;4928209;28;20039;-77
2023/11/24 02:56:05;;;;;;;16.67;10.60;;;;;;;8.18;69.57;93243.72;4931942;28;20463;-78
2023/11/24 02:58:32;;;;;;;18.63;11.02;;;;;;;7.95;69.84;93239.66;4930242;28;20429;-78
2023/11/24 03:00:59;;;;;;;20.83;11.85;;;;;;;7.99;70.01;93235.28;4931165;28;20048;-79
2023/11/24 03:03:26;;;;;;;18.10;11.43;;;;;;;8.13;69.48;93223.47;4930699;28;20558;-78
2023/11/24 03:05:52;;;;;;;21.90;13.32;;;;;;;8.15;69.12;93223.94;4931649;28;20039;-78
2023/11/24 03:08:19;;;;;;;19.92;11.95;;;;;;;8.22;68.90;93226.09;4928905;28;20094;-78
2023/11/24 03:10:44;;;;;;;18.35;11.05;;;;;;;8.33;68.70;93230.00;4931751;28;20028;-77
2023/11/24 03:13:10;;;;;;;19.88;11.73;;;;;;;8.30;68.94;93228.00;4935793;28;20510;-77
2023/11/24 03:15:35;;;;;;;19.20;12.15;;;;;;;8.24;69.00;93210.69;4933813;28;20445;-77
2023/11/24 03:18:01;;;;;;;31.23;13.02;;;;;;;8.38;68.98;93221.91;4927680;28;20039;-77
2023/11/24 03:20:27;;;;;;;19.67;12.15;;;;;;;8.33;68.90;93198.22;4937457;28;20039;-77
2023/11/24 03:22:52;;;;;;;18.48;11.02;;;;;;;8.18;69.63;93201.34;4929140;28;20042;-77
2023/11/24 03:25:20;;;;;;;16.98;11.55;;;;;;;8.13;69.41;93161.75;4931901;28;20071;-78
2023/11/24 03:27:45;;;;;;;25.17;13.05;;;;;;;8.20;70.16;93185.91;4932529;28;20046;-77
2023/11/24 03:30:16;;;;;;;16.02;10.45;;;;;;;8.26;69.37;93165.34;4930944;28;20415;-76
2023/11/24 03:32:42;;;;;;;18.02;12.02;;;;;;;8.34;69.62;93181.22;4940560;28;20044;-76
2023/11/24 03:35:08;;;;;;;16.33;11.43;;;;;;;8.41;69.60;93170.91;4930211;28;20050;-77
2023/11/24 03:37:33;;;;;;;16.83;11.40;;;;;;;8.37;69.30;93143.50;4931720;28;20082;-77
2023/11/24 03:39:59;;;;;;;23.52;13.27;;;;;;;8.40;69.65;93156.13;4933065;28;20439;-76
2023/11/24 03:42:24;;;;;;;20.70;13.43;;;;;;;8.17;70.19;93128.25;4930469;28;20570;-77
2023/11/24 03:44:50;;;;;;;24.38;13.45;;;;;;;8.18;70.33;93135.13;4930656;28;20138;-77
2023/11/24 03:47:17;;;;;;;23.55;16.15;;;;;;;8.29;70.93;93146.94;4931105;28;20035;-78
2023/11/24 03:49:42;;;;;;;23.05;15.48;;;;;;;8.31;70.16;93122.81;4929205;28;20115;-78
2023/11/24 03:52:08;;;;;;;23.50;14.27;;;;;;;8.57;69.56;93142.84;4930333;28;20034;-78
2023/11/24 03:54:33;;;;;;;22.13;14.35;;;;;;;8.29;70.82;93130.28;4930797;28;20498;-77
2023/11/24 03:56:59;;;;;;;23.35;14.10;;;;;;;8.48;70.12;93136.00;4924018;28;20043;-77
2023/11/24 03:59:24;;;;;;;25.00;15.88;;;;;;;8.03;71.52;93119.72;4930516;28;20250;-77
2023/11/24 04:01:50;;;;;;;23.05;15.45;;;;;;;7.99;71.99;93108.97;4930674;28;20679;-77
2023/11/24 04:04:15;;;;;;;23.73;14.43;;;;;;;8.08;71.68;93144.16;4931758;28;20138;-79
2023/11/24 04:06:41;;;;;;;23.92;15.25;;;;;;;8.06;71.59;93121.75;4931450;28;20031;-78
2023/11/24 04:09:07;;;;;;;26.05;16.08;;;;;;;8.10;72.01;93138.56;4925686;28;20067;-78
2023/11/24 04:11:32;;;;;;;23.65;14.38;;;;;;;8.37;70.88;93129.47;4929696;28;20039;-78
2023/11/24 04:13:58;;;;;;;20.48;14.10;;;;;;;8.59;70.38;93139.88;4935786;28;20051;-77
2023/11/24 04:16:26;;;;;;;25.17;15.63;;;;;;;8.56;69.90;93128.00;4928286;28;20050;-76
2023/11/24 04:18:51;;;;;;;25.80;16.00;;;;;;;8.59;69.67;93131.91;4929769;28;20035;-78
2023/11/24 04:21:17;;;;;;;27.48;17.58;;;;;;;8.45;69.39;93105.63;4932834;28;20043;-78
2023/11/24 04:23:42;;;;;;;27.70;16.48;;;;;;;8.65;69.48;93127.22;4929682;28;20036;-78
2023/11/24 04:26:07;;;;;;;23.95;14.88;;;;;;;8.69;69.22;93131.59;4929043;28;20728;-77
2023/11/24 04:28:33;;;;;;;25.73;16.80;;;;;;;8.83;69.18;93147.28;4931514;28;20131;-78
2023/11/24 04:30:59;;;;;;;27.33;15.60;;;;;;;8.50;70.29;93145.19;4928259;28;20031;-76
2023/11/24 04:33:24;;;;;;;30.52;18.05;;;;;;;8.70;69.71;93149.06;4934112;28;20044;-77
2023/11/24 04:35:50;;;;;;;27.20;16.77;;;;;;;8.55;69.72;93150.34;4932588;28;21157;-77
2023/11/24 04:38:16;;;;;;;27.38;17.30;;;;;;;8.36;70.75;93134.00;4947158;28;20050;-78
2023/11/24 04:40:42;;;;;;;27.75;17.55;;;;;;;8.09;71.63;93124.53;4933926;28;20035;-76
2023/11/24 04:43:08;;;;;;;24.80;17.33;;;;;;;8.32;71.17;93135.72;4935339;28;20035;-77
2023/11/24 04:45:35;;;;;;;24.50;16.67;;;;;;;8.42;70.46;93137.25;4931661;28;20047;-77
2023/11/24 04:48:01;;;;;;;25.83;15.57;;;;;;;8.53;70.61;93143.78;4935978;28;20147;-78
2023/11/24 04:50:26;;;;;;;26.52;16.10;;;;;;;8.48;70.61;93142.06;4937204;28;20122;-78
2023/11/24 04:52:52;;;;;;;25.02;16.10;;;;;;;8.64;70.10;93149.53;4932184;28;20402;-78
2023/11/24 04:55:17;;;;;;;23.15;14.70;;;;;;;8.57;70.41;93134.09;4932270;28;20090;-78
2023/11/24 04:57:49;;;;;;;22.65;15.48;;;;;;;8.67;70.13;93133.75;4934396;28;20074;-78
2023/11/24 05:00:15;;;;;;;24.02;14.55;;;;;;;8.74;69.67;93128.75;4932647;28;20059;-77
2023/11/24 05:02:41;;;;;;;20.90;13.25;;;;;;;8.71;69.44;93115.34;4935324;28;20059;-78
2023/11/24 05:05:07;;;;;;;22.63;14.50;;;;;;;8.89;69.42;93135.41;4948312;28;20077;-77
2023/11/24 05:07:34;;;;;;;20.77;14.55;;;;;;;8.93;69.15;93141.63;4942932;28;20064;-77
2023/11/24 05:10:00;;;;;;;22.55;14.43;;;;;;;8.72;69.84;93132.81;4942515;28;20935;-77
2023/11/24 05:12:25;;;;;;;25.80;16.75;;;;;;;8.84;69.45;93130.28;4948970;28;20087;-77
2023/11/24 05:15:00;;;;;;;25.77;15.77;;;;;;;8.83;69.56;93120.75;4943812;28;20035;-76
2023/11/24 05:17:25;;;;;;;22.73;15.20;;;;;;;8.61;69.43;93075.94;4940444;28;20047;-78
2023/11/24 05:19:52;;;;;;;27.02;15.85;;;;;;;8.71;69.27;93100.22;4931175;28;20089;-76
2023/11/24 05:22:18;;;;;;;24.73;15.05;;;;;;;8.45;70.86;93107.50;4933453;28;20546;-78
2023/11/24 05:24:43;;;;;;;20.42;14.15;;;;;;;8.29;70.21;93059.53;4935705;28;20086;-76
2023/11/24 05:27:09;;;;;;;24.80;16.85;;;;;;;7.73;74.06;93089.66;4934680;28;20035;-77
2023/11/24 05:29:34;;;;;;;22.85;15.93;;;;;;;8.10;72.57;93090.88;4948813;28;20409;-78
2023/11/24 05:31:59;;;;;;;24.83;16.50;;;;;;;7.63;74.17;93085.44;4937068;28;20047;-76
2023/11/24 05:34:25;;;;;;;24.65;17.40;;;;;;;7.42;74.86;93081.88;4930103;28;20042;-76
2023/11/24 05:36:51;;;;;;;24.13;16.70;;;;;;;7.33;75.38;93075.03;4927564;28;20055;-76
2023/11/24 05:39:17;;;;;;;24.35;15.27;;;;;;;7.49;75.15;93084.81;4933456;28;20043;-77
2023/11/24 05:41:44;;;;;;;26.98;15.95;;;;;;;7.81;74.29;93078.31;4932430;28;20050;-78
2023/11/24 05:44:10;;;;;;;23.70;14.63;;;;;;;7.83;73.51;93062.88;4932298;28;20114;-76
2023/11/24 05:46:35;;;;;;;18.85;13.35;;;;;;;7.93;72.90;93067.06;4931403;28;20123;-78
2023/11/24 05:49:01;;;;;;;22.25;12.05;;;;;;;8.23;71.63;93078.53;4923883;28;20797;-77
2023/11/24 05:51:27;;;;;;;23.80;13.65;;;;;;;8.26;71.35;93064.69;4932747;28;20042;-77
2023/11/24 05:53:52;;;;;;;21.08;15.48;;;;;;;8.53;70.84;93085.47;4929955;28;20035;-77
2023/11/24 05:56:18;;;;;;;22.02;15.55;;;;;;;8.58;70.64;93080.78;4950312;28;20999;-77
2023/11/24 05:58:44;;;;;;;23.10;15.90;;;;;;;8.64;70.57;93068.13;4932308;28;20520;-77
2023/11/24 06:01:09;;;;;;;28.80;19.13;;;;;;;8.74;70.04;93080.25;4934257;28;20111;-77
2023/11/24 06:03:35;;;;;;;23.83;15.73;;;;;;;8.72;70.16;93077.13;4930013;28;20106;-78
2023/11/24 06:06:00;;;;;;;24.40;15.77;;;;;;;8.72;70.60;93106.28;4928766;28;20051;-78
2023/11/24 06:08:27;;;;;;;20.80;14.63;;;;;;;8.46;71.51;93098.44;4928829;28;20229;-78
2023/11/24 06:10:52;;;;;;;21.35;12.98;;;;;;;8.64;71.27;93086.69;4937411;28;20054;-76
2023/11/24 06:13:18;;;;;;;19.98;14.30;;;;;;;8.74;70.59;93088.22;4935521;28;20032;-76
2023/11/24 06:15:44;;;;;;;20.13;13.10;;;;;;;8.81;70.78;93083.16;4939333;28;20067;-75
2023/11/24 06:18:09;;;;;;;16.80;12.65;;;;;;;8.80;70.28;93071.03;4930223;28;20490;-75
2023/11/24 06:20:35;;;;;;;14.77;10.57;;;;;;;8.72;70.65;93091.16;4933293;28;20027;-75
2023/11/24 06:23:09;;;;;;;13.90;10.15;;;;;;;8.77;70.01;93079.59;4927268;28;20051;-75
2023/11/24 06:25:35;;;;;;;19.90;11.82;;;;;;;8.43;71.30;93064.63;4931429;28;20043;-75
2023/11/24 06:28:00;;;;;;;14.50;10.63;;;;;;;8.69;70.87;93077.78;4934090;28;20026;-75
2023/11/24 06:30:26;;;;;;;18.55;12.25;;;;;;;8.48;71.68;93062.56;4923824;28;20130;-76
2023/11/24 06:32:51;;;;;;;18.05;12.82;;;;;;;8.83;71.54;93071.16;4928821;28;20035;-76
2023/11/24 06:35:17;;;;;;;15.65;11.00;;;;;;;8.90;70.94;93079.38;4926701;28;20070;-76
2023/11/24 06:37:43;;;;;;;19.67;13.10;;;;;;;8.81;70.46;93059.31;4927272;28;20075;-75
2023/11/24 06:40:11;;;;;;;17.00;12.20;;;;;;;8.86;71.20;93067.09;4934881;28;20034;-76
2023/11/24 06:42:40;;;;;;;15.00;10.55;;;;;;;8.66;71.48;93062.53;4932735;28;20126;-76
2023/11/24 06:45:12;;;;;;;14.82;10.55;;;;;;;8.76;71.46;93056.84;4931119;28;20035;-75
2023/11/24 06:47:39;;;;;;;18.40;11.93;;;;;;;8.62;71.32;93045.69;4935607;28;20043;-75
2023/11/24 06:50:13;;;;;;;20.55;13.43;;;;;;;8.67;71.45;93037.56;4931629;28;20091;-76
2023/11/24 06:52:39;;;;;;;16.65;12.40;;;;;;;8.66;71.74;93052.69;4930611;28;20043;-76
2023/11/24 06:55:06;;;;;;;20.88;13.88;;;;;;;8.97;71.12;93042.53;4928186;28;20079;-74
2023/11/24 06:57:32;;;;;;;18.52;11.63;;;;;;;8.58;71.39;93035.72;4927898;28;20040;-75
2023/11/24 06:59:57;;;;;;;16.13;10.52;;;;;;;8.32;71.99;93026.31;4930672;28;20032;-75
2023/11/24 07:02:23;;;;;;;16.10;11.90;;;;;;;8.43;71.70;93017.72;4926252;28;20098;-75
2023/11/24 07:04:49;;;;;;;15.80;11.27;;;;;;;8.79;70.77;93019.09;4930480;28;20094;-77
2023/11/24 07:07:15;;;;;;;21.23;12.50;;;;;;;9.00;70.90;93025.19;4928356;28;20384;-75
2023/11/24 07:09:41;;;;;;;16.05;10.98;;;;;;;8.98;70.16;93000.88;4936587;28;20027;-76
2023/11/24 07:12:09;;;;;;;16.98;10.55;;;;;;;8.89;70.46;93008.13;4928097;28;20431;-75
2023/11/24 07:14:35;;;;;;;13.80;10.73;;;;;;;8.95;70.58;92993.59;4930194;28;20053;-76
2023/11/24 07:17:01;;;;;;;20.33;13.77;;;;;;;8.83;71.14;93006.75;4931004;28;20474;-76
2023/11/24 07:19:27;;;;;;;20.15;12.35;;;;;;;8.70;70.64;93005.13;4933431;28;20043;-75
2023/11/24 07:21:52;;;;;;;21.08;11.57;;;;;;;8.75;71.55;93007.59;4946381;28;20035;-76
2023/11/24 07:24:17;;;;;;;17.60;11.50;;;;;;;8.95;70.42;92986.38;4929668;28;20039;-75
2023/11/24 07:26:43;;;;;;;17.10;11.90;;;;;;;8.93;70.53;93004.50;4929741;28;20039;-75
2023/11/24 07:29:15;;;;;;;18.52;10.80;;;;;;;9.00;70.23;93010.06;4929019;28;20122;-74
2023/11/24 07:31:41;;;;;;;21.40;13.23;;;;;;;9.04;69.85;93010.22;4932074;28;20105;-74
2023/11/24 07:34:06;;;;;;;25.33;14.90;;;;;;;8.99;70.22;92989.19;4930635;28;20112;-76
2023/11/24 07:36:32;;;;;;;24.83;14.35;;;;;;;8.86;70.62;92982.25;4925654;28;20036;-76
2023/11/24 07:38:58;;;;;;;25.95;14.80;;;;;;;9.16;70.44;92994.41;4921778;28;20398;-75
2023/11/24 07:41:24;;;;;;;21.33;14.05;;;;;;;9.20;69.56;92995.28;4918734;28;20860;-75
2023/11/24 07:43:50;;;;;;;20.95;12.40;;;;;;;9.34;69.32;93003.75;4922734;28;20047;-75
2023/11/24 07:46:15;;;;;;;17.77;11.60;;;;;;;9.44;68.76;93014.00;4919144;28;20671;-76
2023/11/24 07:48:41;;;;;;;23.25;12.45;;;;;;;9.23;69.25;93002.63;4919965;28;20028;-76
2023/11/24 07:51:07;;;;;;;19.90;12.48;;;;;;;9.24;69.31;92971.56;4920338;28;20692;-76
2023/11/24 07:53:33;;;;;;;19.55;11.00;;;;;;;9.58;68.86;93016.41;4916033;28;20624;-75
2023/11/24 07:56:00;;;;;;;20.10;12.55;;;;;;;9.67;68.42;93016.31;4925764;28;20035;-76
2023/11/24 07:58:28;;;;;;;20.83;13.10;;;;;;;9.51;67.89;93004.75;4919997;28;20047;-75
2023/11/24 08:00:53;;;;;;;21.17;14.15;;;;;;;9.45;68.08;92994.31;4918548;28;20028;-75
2023/11/24 08:03:18;;;;;;;22.80;14.40;;;;;;;9.28;68.51;92999.78;4924139;28;20070;-75
2023/11/24 08:05:50;;;;;;;12.35;9.20;;;;;;;9.14;68.43;92985.22;4916642;28;20533;-76
2023/11/24 08:08:16;;;;;;;19.05;11.88;;;;;;;9.40;68.14;92986.56;4922640;28;20570;-75
2023/11/24 08:10:43;;;;;;;13.05;10.00;;;;;;;9.53;68.20;92991.94;4929825;28;20055;-75
2023/11/24 08:13:11;;;;;;;16.55;10.30;;;;;;;9.69;67.53;92993.63;4913198;28;20074;-75
2023/11/24 08:15:37;;;;;;;16.55;9.45;;;;;;;9.49;68.20;92994.44;4914055;28;20102;-75
2023/11/24 08:18:05;;;;;;;14.85;10.13;;;;;;;9.21;68.93;92956.28;4899612;29;20712;-76
2023/11/24 08:20:30;;;;;;;15.23;9.73;;;;;;;9.11;68.83;92957.44;4912415;28;20044;-75
2023/11/24 08:22:55;;;;;;;13.50;10.57;;;;;;;9.34;68.59;92965.88;4898991;28;20067;-76
2023/11/24 08:25:21;;;;;;;17.38;11.75;;;;;;;9.30;68.56;92965.72;4904758;29;20545;-75
2023/11/24 08:27:46;;;;;;;16.40;11.65;;;;;;;9.38;68.61;92956.94;4900788;29;20130;-76
2023/11/24 08:30:12;;;;;;;12.95;9.07;;;;;;;9.10;67.65;92923.25;4899244;29;20094;-75
2023/11/24 08:32:39;;;;;;;15.55;9.38;;;;;;;9.46;67.78;92952.63;4896119;28;20044;-76
2023/11/24 08:35:07;;;;;;;18.23;11.07;;;;;;;9.31;67.36;92902.81;4901098;29;20056;-76
2023/11/24 08:37:36;;;;;;;17.27;11.48;;;;;;;9.54;67.86;92945.69;4900403;28;20625;-75
2023/11/24 08:40:06;;;;;;;19.58;10.90;;;;;;;9.42;67.51;92931.28;4902600;29;21308;-76
2023/11/24 08:42:33;;;;;;;16.58;9.82;;;;;;;9.45;67.76;92924.53;4905321;29;20707;-75
2023/11/24 08:45:00;;;;;;;15.75;10.63;;;;;;;9.63;66.58;92931.25;4902603;28;20039;-76
2023/11/24 08:47:25;;;;;;;17.88;10.25;;;;;;;9.47;67.33;92921.56;4903614;29;20787;-75
2023/11/24 08:49:51;;;;;;;16.85;11.48;;;;;;;9.43;67.06;92926.75;4918401;28;20036;-75
2023/11/24 08:52:17;;;;;;;15.77;10.23;;;;;;;9.62;67.37;92923.59;4903968;29;20039;-76
2023/11/24 08:54:42;;;;;;;19.05;11.25;;;;;;;9.54;67.13;92922.56;4905495;29;20024;-75
2023/11/24 08:57:08;;;;;;;18.70;11.45;;;;;;;9.75;66.58;92911.91;4903223;28;20424;-76
2023/11/24 08:59:34;;;;;;;17.50;11.05;;;;;;;9.90;66.40;92900.66;4905103;28;20068;-76
2023/11/24 09:02:00;;;;;;;20.27;10.18;;;;;;;9.97;65.76;92887.59;4892864;28;20602;-76
2023/11/24 09:04:27;;;;;;;18.40;12.43;;;;;;;9.81;66.18;92894.66;4892480;29;20031;-76
2023/11/24 09:06:53;;;;;;;20.08;11.82;;;;;;;9.53;66.98;92893.72;4904514;29;20042;-76
2023/11/24 09:09:19;;;;;;;23.48;11.73;;;;;;;9.70;66.49;92894.31;4894126;29;20056;-77
2023/11/24 09:11:46;;;;;;;24.00;12.80;;;;;;;9.51;67.49;92891.38;4904011;28;20089;-76
2023/11/24 09:14:12;;;;;;;18.88;12.27;;;;;;;9.48;66.69;92872.69;4898685;28;20662;-75
2023/11/24 09:16:37;;;;;;;17.52;12.77;;;;;;;9.67;66.43;92883.56;4896062;29;20083;-76
2023/11/24 09:19:03;;;;;;;16.77;11.88;;;;;;;9.61;66.56;92890.97;4902495;29;20036;-76
2023/11/24 09:21:33;;;;;;;20.13;13.25;;;;;;;9.66;65.89;92879.38;4905606;29;20040;-76
2023/11/24 09:23:59;;;;;;;21.08;14.40;;;;;;;9.61;66.55;92879.56;4901959;29;20051;-76
2023/11/24 09:26:25;;;;;;;22.65;14.02;;;;;;;9.76;66.30;92869.09;4903475;29;20043;-75
2023/11/24 09:28:51;;;;;;;20.88;12.95;;;;;;;9.87;66.25;92861.47;4901094;28;20062;-76
2023/11/24 09:31:18;;;;;;;22.02;12.75;;;;;;;9.63;66.53;92850.84;4906916;29;20091;-76
2023/11/24 09:33:44;;;;;;;19.42;12.52;;;;;;;9.71;66.66;92847.28;4901930;29;20146;-76
2023/11/24 09:36:10;;;;;;;24.80;13.23;;;;;;;9.74;66.61;92838.66;4903651;28;20051;-75
2023/11/24 09:38:37;;;;;;;19.42;12.73;;;;;;;9.74;66.58;92839.44;4904905;29;20068;-76
2023/11/24 09:41:08;;;;;;;18.00;12.20;;;;;;;9.68;66.60;92829.38;4908321;29;20380;-76
2023/11/24 09:43:39;;;;;;;18.00;12.90;;;;;;;9.70;66.51;92811.22;4905577;29;20639;-76
2023/11/24 09:46:06;;;;;;;20.60;13.52;;;;;;;9.70;66.91;92808.56;4901515;29;20023;-77
2023/11/24 09:48:33;;;;;;;21.80;13.02;;;;;;;9.79;66.89;92817.19;4900435;29;20039;-75
2023/11/24 09:51:03;;;;;;;28.17;14.20;;;;;;;9.87;66.09;92808.38;4919762;28;20462;-76
2023/11/24 09:53:35;;;;;;;24.10;13.68;;;;;;;9.97;65.75;92781.38;4901483;29;20043;-75
2023/11/24 09:56:02;;;;;;;23.35;13.98;;;;;;;9.90;65.71;92786.44;4906890;28;20047;-76
2023/11/24 09:58:28;;;;;;;22.25;14.52;;;;;;;10.06;65.67;92795.28;4916885;28;20215;-76
2023/11/24 10:01:14;;;;;;;26.38;15.55;;;;;;;10.10;65.84;92784.78;4907636;29;20372;-76
2023/11/24 10:03:41;;;;;;;;;;;;;;;9.86;66.88;92769.63;4928906;28;20554;-75
2023/11/24 10:06:11;;;;;;;22.02;14.40;;;;;;;9.82;67.52;92768.75;4905004;28;19962;-76
2023/11/24 10:08:37;;;;;;;26.10;15.88;;;;;;;9.82;68.09;92777.50;4915682;28;20078;-75
2023/11/24 10:11:13;;;;;;;27.45;16.05;;;;;;;9.43;69.16;92768.31;4920188;28;20091;-75
2023/11/24 10:13:40;;;;;;;25.40;16.52;;;;;;;9.19;71.03;92757.66;4919625;28;20044;-75
2023/11/24 10:16:06;;;;;;;23.13;16.45;;;;;;;9.12;70.85;92743.38;4918122;28;20126;-75
2023/11/24 10:18:32;;;;;;;31.90;17.73;;;;;;;9.07;71.72;92749.66;4923249;28;20035;-76
2023/11/24 10:20:59;;;;;;;23.20;15.70;;;;;;;9.29;70.25;92720.06;4922427;28;20043;-76
2023/11/24 10:23:29;;;;;;;30.00;15.43;;;;;;;9.65;69.77;92737.13;4923718;28;20060;-75
2023/11/24 10:25:57;;;;;;;29.73;15.95;;;;;;;9.46;70.63;92737.66;4921639;28;20150;-76
2023/11/24 10:28:24;;;;;;;32.03;17.20;;;;;;;9.69;70.61;92730.81;4923048;28;21427;-76
2023/11/24 10:30:49;;;;;;;31.48;18.33;;;;;;;9.55;71.40;92721.63;4921352;28;20359;-75
2023/11/24 10:33:17;;;;;;;25.63;16.83;;;;;;;9.41;70.94;92706.81;4922483;28;20507;-75
2023/11/24 10:35:45;;;;;;;39.22;17.73;;;;;;;9.62;70.96;92732.47;4938461;28;20054;-75
2023/11/24 10:38:19;;;;;;;30.83;17.52;;;;;;;9.78;69.91;92726.16;4919380;28;20109;-74
2023/11/24 10:40:49;;;;;;;26.13;15.48;;;;;;;9.74;70.42;92729.81;4938471;28;20040;-76
2023/11/24 10:43:21;;;;;;;22.55;15.18;;;;;;;9.67;69.57;92718.97;4947180;28;20069;-75
2023/11/24 10:45:52;;;;;;;25.73;15.68;;;;;;;9.80;69.51;92708.00;4925233;28;20106;-75
2023/11/24 10:48:21;;;;;;;25.35;15.48;;;;;;;9.72;70.56;92713.44;4922953;28;20094;-75
2023/11/24 10:51:27;;;;;;;23.63;15.02;;;;;;;9.74;69.71;92674.03;4927548;28;20091;-75
2023/11/24 10:54:01;;;;;;;23.10;14.05;;;;;;;9.72;70.55;92685.03;4935099;28;20523;-76
2023/11/24 10:56:31;;;;;;;19.65;12.95;;;;;;;9.65;70.30;92689.31;4946138;28;20059;-76
2023/11/24 10:58:59;;;;;;;20.23;12.30;;;;;;;9.43;69.22;92678.09;4932625;28;20082;-76
2023/11/24 11:01:27;;;;;;;18.48;11.63;;;;;;;9.37;69.24;92660.06;4929202;28;20087;-76
2023/11/24 11:03:58;;;;;;;18.65;12.40;;;;;;;9.65;68.76;92662.78;4930094;28;20016;-76
2023/11/24 11:06:38;;;;;;;21.45;10.93;;;;;;;9.64;69.22;92661.22;4930557;28;20035;-76
2023/11/24 11:11:54;;;;;;;24.38;14.32;;;;;;;9.22;69.85;92653.53;4928026;28;20255;-76
2023/11/24 11:14:21;;;;;;;28.65;16.00;;;;;;;9.29;70.41;92645.78;4945483;28;20050;-76
2023/11/24 11:16:51;;;;;;;21.90;13.50;;;;;;;9.33;70.10;92636.06;4927631;28;20039;-76
2023/11/24 11:19:32;;;;;;;27.17;16.50;;;;;;;9.38;70.40;92637.72;4948827;28;20031;-74
2023/11/24 11:22:04;;;;;;;30.00;18.05;;;;;;;9.17;71.47;92632.53;4949638;28;20084;-76
2023/11/24 11:24:34;;;;;;;28.92;18.90;;;;;;;9.12;71.21;92616.84;4933180;28;20130;-75
2023/11/24 11:26:59;;;;;;;33.85;19.40;;;;;;;9.13;71.10;92599.84;4926438;28;20068;-75